sensor_id;sensor_type;location;lat;lon;timestamp;P1;durP1;ratioP1;P2;durP2;ratioP2
1294;SDS011;640;48.310;11.728;2022-12-18T00:00:05;76.38;;;29.67;;
1294;SDS011;640;48.310;11.728;2022-12-18T00:02:34;67.18;;;28.02;;
1294;SDS011;640;48.310;11.728;2022-12-18T00:05:03;62.17;;;26.33;;
1294;SDS011;640;48.310;11.728;2022-12-18T00:07:31;74.15;;;31.50;;
1294;SDS011;640;48.310;11.728;2022-12-18T00:09:59;62.28;;;26.25;;
1294;SDS011;640;48.310;11.728;2022-12-18T00:12:28;44.15;;;20.17;;
1294;SDS011;640;48.310;11.728;2022-12-18T00:14:56;61.55;;;23.83;;
1294;SDS011;640;48.310;11.728;2022-12-18T00:17:26;70.75;;;27.65;;
1294;SDS011;640;48.310;11.728;2022-12-18T00:19:54;61.73;;;25.37;;
1294;SDS011;640;48.310;11.728;2022-12-18T00:22:22;72.13;;;30.33;;
1294;SDS011;640;48.310;11.728;2022-12-18T00:24:50;63.38;;;26.45;;
1294;SDS011;640;48.310;11.728;2022-12-18T00:27:19;60.15;;;24.90;;
1294;SDS011;640;48.310;11.728;2022-12-18T00:29:47;60.72;;;26.80;;
1294;SDS011;640;48.310;11.728;2022-12-18T00:32:15;52.75;;;23.65;;
1294;SDS011;640;48.310;11.728;2022-12-18T00:34:45;59.95;;;24.88;;
1294;SDS011;640;48.310;11.728;2022-12-18T00:37:13;66.50;;;29.40;;
1294;SDS011;640;48.310;11.728;2022-12-18T00:39:47;66.63;;;27.80;;
1294;SDS011;640;48.310;11.728;2022-12-18T00:42:16;34.50;;;15.38;;
1294;SDS011;640;48.310;11.728;2022-12-18T00:45:02;62.22;;;27.50;;
1294;SDS011;640;48.310;11.728;2022-12-18T00:47:38;71.18;;;29.70;;
1294;SDS011;640;48.310;11.728;2022-12-18T00:50:08;48.00;;;21.85;;
1294;SDS011;640;48.310;11.728;2022-12-18T00:52:37;24.80;;;14.13;;
1294;SDS011;640;48.310;11.728;2022-12-18T00:55:05;67.75;;;27.92;;
1294;SDS011;640;48.310;11.728;2022-12-18T00:57:34;57.63;;;24.40;;
1294;SDS011;640;48.310;11.728;2022-12-18T01:00:03;54.70;;;21.83;;
1294;SDS011;640;48.310;11.728;2022-12-18T01:02:32;64.80;;;27.58;;
1294;SDS011;640;48.310;11.728;2022-12-18T01:05:01;62.03;;;26.08;;
1294;SDS011;640;48.310;11.728;2022-12-18T01:07:31;47.90;;;19.92;;
1294;SDS011;640;48.310;11.728;2022-12-18T01:09:59;37.33;;;17.03;;
1294;SDS011;640;48.310;11.728;2022-12-18T01:12:27;49.65;;;20.45;;
1294;SDS011;640;48.310;11.728;2022-12-18T01:14:56;65.00;;;27.33;;
1294;SDS011;640;48.310;11.728;2022-12-18T01:17:24;59.72;;;25.38;;
1294;SDS011;640;48.310;11.728;2022-12-18T01:19:52;55.30;;;22.63;;
1294;SDS011;640;48.310;11.728;2022-12-18T01:22:21;56.17;;;23.67;;
1294;SDS011;640;48.310;11.728;2022-12-18T01:24:50;60.00;;;25.08;;
1294;SDS011;640;48.310;11.728;2022-12-18T01:27:18;60.90;;;24.00;;
1294;SDS011;640;48.310;11.728;2022-12-18T01:29:47;67.82;;;26.05;;
1294;SDS011;640;48.310;11.728;2022-12-18T01:32:15;65.43;;;26.38;;
1294;SDS011;640;48.310;11.728;2022-12-18T01:34:43;64.28;;;27.27;;
1294;SDS011;640;48.310;11.728;2022-12-18T01:37:12;71.68;;;27.60;;
1294;SDS011;640;48.310;11.728;2022-12-18T01:39:40;61.38;;;25.20;;
1294;SDS011;640;48.310;11.728;2022-12-18T01:42:10;56.65;;;24.08;;
1294;SDS011;640;48.310;11.728;2022-12-18T01:44:53;68.43;;;26.30;;
1294;SDS011;640;48.310;11.728;2022-12-18T01:47:33;62.22;;;25.27;;
1294;SDS011;640;48.310;11.728;2022-12-18T01:50:05;72.95;;;27.15;;
1294;SDS011;640;48.310;11.728;2022-12-18T01:52:36;72.65;;;28.35;;
1294;SDS011;640;48.310;11.728;2022-12-18T01:55:05;67.15;;;27.17;;
1294;SDS011;640;48.310;11.728;2022-12-18T01:57:36;59.35;;;26.70;;
1294;SDS011;640;48.310;11.728;2022-12-18T02:00:06;71.30;;;28.70;;
1294;SDS011;640;48.310;11.728;2022-12-18T02:02:36;58.13;;;22.75;;
1294;SDS011;640;48.310;11.728;2022-12-18T02:05:06;70.72;;;28.70;;
1294;SDS011;640;48.310;11.728;2022-12-18T02:07:37;64.30;;;27.85;;
1294;SDS011;640;48.310;11.728;2022-12-18T02:10:13;63.00;;;23.52;;
1294;SDS011;640;48.310;11.728;2022-12-18T02:12:48;71.22;;;29.42;;
1294;SDS011;640;48.310;11.728;2022-12-18T02:15:19;63.13;;;26.27;;
1294;SDS011;640;48.310;11.728;2022-12-18T02:17:52;67.88;;;27.75;;
1294;SDS011;640;48.310;11.728;2022-12-18T02:20:24;61.83;;;24.40;;
1294;SDS011;640;48.310;11.728;2022-12-18T02:23:01;64.93;;;25.73;;
1294;SDS011;640;48.310;11.728;2022-12-18T02:25:44;66.13;;;26.92;;
1294;SDS011;640;48.310;11.728;2022-12-18T02:28:25;69.20;;;26.17;;
1294;SDS011;640;48.310;11.728;2022-12-18T02:30:56;71.20;;;26.02;;
1294;SDS011;640;48.310;11.728;2022-12-18T02:33:27;72.50;;;29.33;;
1294;SDS011;640;48.310;11.728;2022-12-18T02:35:55;60.65;;;24.73;;
1294;SDS011;640;48.310;11.728;2022-12-18T02:38:25;65.90;;;26.80;;
1294;SDS011;640;48.310;11.728;2022-12-18T02:40:53;56.55;;;24.95;;
1294;SDS011;640;48.310;11.728;2022-12-18T02:43:24;62.97;;;26.35;;
1294;SDS011;640;48.310;11.728;2022-12-18T02:45:53;63.50;;;27.38;;
1294;SDS011;640;48.310;11.728;2022-12-18T02:48:24;56.47;;;24.35;;
1294;SDS011;640;48.310;11.728;2022-12-18T02:50:57;60.90;;;26.63;;
1294;SDS011;640;48.310;11.728;2022-12-18T02:53:30;58.83;;;25.50;;
1294;SDS011;640;48.310;11.728;2022-12-18T02:56:03;32.70;;;15.30;;
1294;SDS011;640;48.310;11.728;2022-12-18T02:58:37;55.85;;;22.58;;
1294;SDS011;640;48.310;11.728;2022-12-18T03:01:09;44.75;;;20.58;;
1294;SDS011;640;48.310;11.728;2022-12-18T03:03:41;54.53;;;24.25;;
1294;SDS011;640;48.310;11.728;2022-12-18T03:06:12;54.55;;;24.55;;
1294;SDS011;640;48.310;11.728;2022-12-18T03:08:46;43.65;;;21.70;;
1294;SDS011;640;48.310;11.728;2022-12-18T03:11:17;48.42;;;20.13;;
1294;SDS011;640;48.310;11.728;2022-12-18T03:14:06;63.28;;;28.58;;
1294;SDS011;640;48.310;11.728;2022-12-18T03:16:35;61.58;;;26.80;;
1294;SDS011;640;48.310;11.728;2022-12-18T03:19:06;43.28;;;19.13;;
1294;SDS011;640;48.310;11.728;2022-12-18T03:21:40;39.15;;;17.63;;
1294;SDS011;640;48.310;11.728;2022-12-18T03:24:10;61.63;;;25.08;;
1294;SDS011;640;48.310;11.728;2022-12-18T03:26:41;43.10;;;18.33;;
1294;SDS011;640;48.310;11.728;2022-12-18T03:29:12;56.90;;;24.02;;
1294;SDS011;640;48.310;11.728;2022-12-18T03:31:45;43.60;;;20.60;;
1294;SDS011;640;48.310;11.728;2022-12-18T03:34:17;52.63;;;23.25;;
1294;SDS011;640;48.310;11.728;2022-12-18T03:36:48;52.08;;;23.05;;
1294;SDS011;640;48.310;11.728;2022-12-18T03:39:16;45.58;;;18.98;;
1294;SDS011;640;48.310;11.728;2022-12-18T03:41:47;25.90;;;13.35;;
1294;SDS011;640;48.310;11.728;2022-12-18T03:44:20;29.27;;;15.52;;
1294;SDS011;640;48.310;11.728;2022-12-18T03:46:54;40.70;;;19.75;;
1294;SDS011;640;48.310;11.728;2022-12-18T03:49:28;55.67;;;21.77;;
1294;SDS011;640;48.310;11.728;2022-12-18T03:52:02;47.03;;;19.70;;
1294;SDS011;640;48.310;11.728;2022-12-18T03:54:33;47.63;;;20.20;;
1294;SDS011;640;48.310;11.728;2022-12-18T03:57:04;54.30;;;23.80;;
1294;SDS011;640;48.310;11.728;2022-12-18T03:59:35;47.58;;;21.55;;
1294;SDS011;640;48.310;11.728;2022-12-18T04:02:04;42.95;;;18.98;;
1294;SDS011;640;48.310;11.728;2022-12-18T04:04:35;31.23;;;15.82;;
1294;SDS011;640;48.310;11.728;2022-12-18T04:07:04;49.33;;;20.55;;
1294;SDS011;640;48.310;11.728;2022-12-18T04:09:32;45.55;;;21.00;;
1294;SDS011;640;48.310;11.728;2022-12-18T04:12:02;50.88;;;22.58;;
1294;SDS011;640;48.310;11.728;2022-12-18T04:14:31;54.40;;;24.75;;
1294;SDS011;640;48.310;11.728;2022-12-18T04:19:30;33.15;;;16.55;;
1294;SDS011;640;48.310;11.728;2022-12-18T04:21:58;43.30;;;19.90;;
1294;SDS011;640;48.310;11.728;2022-12-18T04:24:26;49.67;;;22.15;;
1294;SDS011;640;48.310;11.728;2022-12-18T04:26:55;47.22;;;22.45;;
1294;SDS011;640;48.310;11.728;2022-12-18T04:29:24;58.25;;;27.77;;
1294;SDS011;640;48.310;11.728;2022-12-18T04:31:52;48.92;;;22.05;;
1294;SDS011;640;48.310;11.728;2022-12-18T04:34:21;52.53;;;24.40;;
1294;SDS011;640;48.310;11.728;2022-12-18T04:36:49;54.22;;;23.85;;
1294;SDS011;640;48.310;11.728;2022-12-18T04:39:17;43.70;;;19.30;;
1294;SDS011;640;48.310;11.728;2022-12-18T04:41:46;48.80;;;22.70;;
1294;SDS011;640;48.310;11.728;2022-12-18T04:44:14;51.65;;;21.33;;
1294;SDS011;640;48.310;11.728;2022-12-18T04:46:44;45.83;;;22.30;;
1294;SDS011;640;48.310;11.728;2022-12-18T04:49:12;43.40;;;20.38;;
1294;SDS011;640;48.310;11.728;2022-12-18T04:51:41;46.67;;;20.83;;
1294;SDS011;640;48.310;11.728;2022-12-18T04:54:09;43.35;;;17.70;;
1294;SDS011;640;48.310;11.728;2022-12-18T04:56:37;48.20;;;19.77;;
1294;SDS011;640;48.310;11.728;2022-12-18T04:59:06;45.78;;;20.90;;
1294;SDS011;640;48.310;11.728;2022-12-18T05:01:34;46.70;;;20.15;;
1294;SDS011;640;48.310;11.728;2022-12-18T05:04:04;46.30;;;21.98;;
1294;SDS011;640;48.310;11.728;2022-12-18T05:06:33;45.30;;;21.48;;
1294;SDS011;640;48.310;11.728;2022-12-18T05:09:01;47.75;;;21.73;;
1294;SDS011;640;48.310;11.728;2022-12-18T05:11:29;46.42;;;20.77;;
1294;SDS011;640;48.310;11.728;2022-12-18T05:13:58;45.25;;;19.42;;
1294;SDS011;640;48.310;11.728;2022-12-18T05:16:26;43.83;;;20.00;;
1294;SDS011;640;48.310;11.728;2022-12-18T05:18:54;53.03;;;22.58;;
1294;SDS011;640;48.310;11.728;2022-12-18T05:21:24;43.95;;;18.35;;
1294;SDS011;640;48.310;11.728;2022-12-18T05:23:52;57.37;;;23.93;;
1294;SDS011;640;48.310;11.728;2022-12-18T05:26:20;54.38;;;23.75;;
1294;SDS011;640;48.310;11.728;2022-12-18T05:28:49;52.63;;;22.50;;
1294;SDS011;640;48.310;11.728;2022-12-18T05:31:17;54.85;;;24.00;;
1294;SDS011;640;48.310;11.728;2022-12-18T05:33:45;42.72;;;19.75;;
1294;SDS011;640;48.310;11.728;2022-12-18T05:36:14;55.25;;;22.90;;
1294;SDS011;640;48.310;11.728;2022-12-18T05:38:43;51.88;;;24.55;;
1294;SDS011;640;48.310;11.728;2022-12-18T05:41:12;57.83;;;25.63;;
1294;SDS011;640;48.310;11.728;2022-12-18T05:43:40;53.00;;;22.90;;
1294;SDS011;640;48.310;11.728;2022-12-18T05:46:11;56.13;;;22.20;;
1294;SDS011;640;48.310;11.728;2022-12-18T05:48:40;55.58;;;24.77;;
1294;SDS011;640;48.310;11.728;2022-12-18T05:51:10;45.25;;;19.00;;
1294;SDS011;640;48.310;11.728;2022-12-18T05:53:39;47.85;;;22.25;;
1294;SDS011;640;48.310;11.728;2022-12-18T05:56:10;58.58;;;23.98;;
1294;SDS011;640;48.310;11.728;2022-12-18T05:58:40;47.10;;;21.05;;
1294;SDS011;640;48.310;11.728;2022-12-18T06:01:09;54.63;;;23.08;;
1294;SDS011;640;48.310;11.728;2022-12-18T06:06:14;59.33;;;23.48;;
1294;SDS011;640;48.310;11.728;2022-12-18T06:08:43;54.28;;;23.13;;
1294;SDS011;640;48.310;11.728;2022-12-18T06:11:15;56.75;;;23.95;;
1294;SDS011;640;48.310;11.728;2022-12-18T06:13:45;55.50;;;24.40;;
1294;SDS011;640;48.310;11.728;2022-12-18T06:16:14;55.22;;;23.33;;
1294;SDS011;640;48.310;11.728;2022-12-18T06:18:42;51.75;;;20.20;;
1294;SDS011;640;48.310;11.728;2022-12-18T06:21:11;48.03;;;21.63;;
1294;SDS011;640;48.310;11.728;2022-12-18T06:23:39;44.65;;;20.48;;
1294;SDS011;640;48.310;11.728;2022-12-18T06:26:09;50.75;;;24.23;;
1294;SDS011;640;48.310;11.728;2022-12-18T06:28:39;54.88;;;23.30;;
1294;SDS011;640;48.310;11.728;2022-12-18T06:31:08;56.83;;;24.73;;
1294;SDS011;640;48.310;11.728;2022-12-18T06:33:37;54.70;;;21.45;;
1294;SDS011;640;48.310;11.728;2022-12-18T06:36:08;59.90;;;23.23;;
1294;SDS011;640;48.310;11.728;2022-12-18T06:38:38;49.78;;;19.98;;
1294;SDS011;640;48.310;11.728;2022-12-18T06:41:08;57.70;;;22.85;;
1294;SDS011;640;48.310;11.728;2022-12-18T06:43:37;51.83;;;21.88;;
1294;SDS011;640;48.310;11.728;2022-12-18T06:46:07;55.67;;;22.55;;
1294;SDS011;640;48.310;11.728;2022-12-18T06:48:36;52.20;;;22.85;;
1294;SDS011;640;48.310;11.728;2022-12-18T06:51:04;40.22;;;18.13;;
1294;SDS011;640;48.310;11.728;2022-12-18T06:53:33;38.47;;;17.08;;
1294;SDS011;640;48.310;11.728;2022-12-18T06:56:02;59.35;;;25.65;;
1294;SDS011;640;48.310;11.728;2022-12-18T06:58:36;42.10;;;20.00;;
1294;SDS011;640;48.310;11.728;2022-12-18T07:01:05;55.33;;;23.52;;
1294;SDS011;640;48.310;11.728;2022-12-18T07:03:37;44.42;;;19.52;;
1294;SDS011;640;48.310;11.728;2022-12-18T07:06:11;49.77;;;23.63;;
1294;SDS011;640;48.310;11.728;2022-12-18T07:08:41;26.70;;;14.52;;
1294;SDS011;640;48.310;11.728;2022-12-18T07:11:09;48.17;;;22.58;;
1294;SDS011;640;48.310;11.728;2022-12-18T07:13:38;50.65;;;22.30;;
1294;SDS011;640;48.310;11.728;2022-12-18T07:16:09;41.55;;;18.60;;
1294;SDS011;640;48.310;11.728;2022-12-18T07:18:48;52.22;;;24.38;;
1294;SDS011;640;48.310;11.728;2022-12-18T07:21:17;31.70;;;14.95;;
1294;SDS011;640;48.310;11.728;2022-12-18T07:23:46;51.25;;;23.58;;
1294;SDS011;640;48.310;11.728;2022-12-18T07:26:16;32.42;;;16.05;;
1294;SDS011;640;48.310;11.728;2022-12-18T07:28:45;37.35;;;16.33;;
1294;SDS011;640;48.310;11.728;2022-12-18T07:31:15;50.05;;;21.25;;
1294;SDS011;640;48.310;11.728;2022-12-18T07:33:44;37.40;;;17.13;;
1294;SDS011;640;48.310;11.728;2022-12-18T07:36:13;39.13;;;18.63;;
1294;SDS011;640;48.310;11.728;2022-12-18T07:38:42;36.85;;;15.75;;
1294;SDS011;640;48.310;11.728;2022-12-18T07:41:11;39.63;;;19.00;;
1294;SDS011;640;48.310;11.728;2022-12-18T07:43:40;39.95;;;20.05;;
1294;SDS011;640;48.310;11.728;2022-12-18T07:46:10;55.40;;;24.23;;
1294;SDS011;640;48.310;11.728;2022-12-18T07:51:15;31.40;;;14.48;;
1294;SDS011;640;48.310;11.728;2022-12-18T07:53:44;47.10;;;20.67;;
1294;SDS011;640;48.310;11.728;2022-12-18T07:56:18;45.10;;;19.00;;
1294;SDS011;640;48.310;11.728;2022-12-18T07:58:57;36.20;;;17.80;;
1294;SDS011;640;48.310;11.728;2022-12-18T08:01:26;49.72;;;21.67;;
1294;SDS011;640;48.310;11.728;2022-12-18T08:03:56;34.58;;;17.85;;
1294;SDS011;640;48.310;11.728;2022-12-18T08:06:25;32.75;;;16.38;;
1294;SDS011;640;48.310;11.728;2022-12-18T08:08:53;43.38;;;19.75;;
1294;SDS011;640;48.310;11.728;2022-12-18T08:11:23;42.05;;;19.77;;
1294;SDS011;640;48.310;11.728;2022-12-18T08:13:53;44.10;;;19.63;;
1294;SDS011;640;48.310;11.728;2022-12-18T08:16:21;47.55;;;20.65;;
1294;SDS011;640;48.310;11.728;2022-12-18T08:18:51;36.25;;;17.55;;
1294;SDS011;640;48.310;11.728;2022-12-18T08:21:22;44.53;;;20.75;;
1294;SDS011;640;48.310;11.728;2022-12-18T08:23:53;46.83;;;21.02;;
1294;SDS011;640;48.310;11.728;2022-12-18T08:26:22;46.85;;;21.98;;
1294;SDS011;640;48.310;11.728;2022-12-18T08:28:51;45.88;;;21.13;;
1294;SDS011;640;48.310;11.728;2022-12-18T08:31:21;40.87;;;20.17;;
1294;SDS011;640;48.310;11.728;2022-12-18T08:33:50;42.42;;;19.30;;
1294;SDS011;640;48.310;11.728;2022-12-18T08:36:22;43.38;;;20.63;;
1294;SDS011;640;48.310;11.728;2022-12-18T08:38:52;36.67;;;17.58;;
1294;SDS011;640;48.310;11.728;2022-12-18T08:41:20;43.80;;;19.77;;
1294;SDS011;640;48.310;11.728;2022-12-18T08:43:49;40.67;;;19.63;;
1294;SDS011;640;48.310;11.728;2022-12-18T08:46:35;48.10;;;23.88;;
1294;SDS011;640;48.310;11.728;2022-12-18T08:49:05;44.88;;;21.40;;
1294;SDS011;640;48.310;11.728;2022-12-18T08:51:35;44.80;;;21.70;;
1294;SDS011;640;48.310;11.728;2022-12-18T08:54:04;52.10;;;23.92;;
1294;SDS011;640;48.310;11.728;2022-12-18T08:56:33;48.70;;;25.25;;
1294;SDS011;640;48.310;11.728;2022-12-18T08:59:01;46.03;;;21.75;;
1294;SDS011;640;48.310;11.728;2022-12-18T09:01:31;55.63;;;29.73;;
1294;SDS011;640;48.310;11.728;2022-12-18T09:04:00;46.50;;;22.08;;
1294;SDS011;640;48.310;11.728;2022-12-18T09:06:28;45.90;;;21.70;;
1294;SDS011;640;48.310;11.728;2022-12-18T09:08:58;40.45;;;18.58;;
1294;SDS011;640;48.310;11.728;2022-12-18T09:11:27;39.80;;;19.95;;
1294;SDS011;640;48.310;11.728;2022-12-18T09:13:57;40.15;;;20.35;;
1294;SDS011;640;48.310;11.728;2022-12-18T09:16:27;43.95;;;20.90;;
1294;SDS011;640;48.310;11.728;2022-12-18T09:18:59;36.08;;;17.73;;
1294;SDS011;640;48.310;11.728;2022-12-18T09:21:28;39.63;;;19.50;;
1294;SDS011;640;48.310;11.728;2022-12-18T09:24:04;20.13;;;12.05;;
1294;SDS011;640;48.310;11.728;2022-12-18T09:26:35;34.05;;;17.85;;
1294;SDS011;640;48.310;11.728;2022-12-18T09:29:04;35.20;;;18.05;;
1294;SDS011;640;48.310;11.728;2022-12-18T09:31:34;31.27;;;16.00;;
1294;SDS011;640;48.310;11.728;2022-12-18T09:34:04;38.53;;;15.82;;
1294;SDS011;640;48.310;11.728;2022-12-18T09:36:32;44.80;;;21.30;;
1294;SDS011;640;48.310;11.728;2022-12-18T09:39:01;45.45;;;23.40;;
1294;SDS011;640;48.310;11.728;2022-12-18T09:41:40;42.08;;;20.67;;
1294;SDS011;640;48.310;11.728;2022-12-18T09:44:13;42.20;;;20.58;;
1294;SDS011;640;48.310;11.728;2022-12-18T09:46:47;40.47;;;19.85;;
1294;SDS011;640;48.310;11.728;2022-12-18T09:49:22;43.50;;;21.15;;
1294;SDS011;640;48.310;11.728;2022-12-18T09:51:52;42.30;;;21.35;;
1294;SDS011;640;48.310;11.728;2022-12-18T09:54:24;38.05;;;18.50;;
1294;SDS011;640;48.310;11.728;2022-12-18T09:56:56;41.85;;;21.13;;
1294;SDS011;640;48.310;11.728;2022-12-18T09:59:25;42.40;;;20.02;;
1294;SDS011;640;48.310;11.728;2022-12-18T10:01:56;35.97;;;17.63;;
1294;SDS011;640;48.310;11.728;2022-12-18T10:04:25;31.20;;;16.65;;
1294;SDS011;640;48.310;11.728;2022-12-18T10:06:58;29.05;;;13.25;;
1294;SDS011;640;48.310;11.728;2022-12-18T10:09:37;42.33;;;21.48;;
1294;SDS011;640;48.310;11.728;2022-12-18T10:12:12;31.50;;;16.73;;
1294;SDS011;640;48.310;11.728;2022-12-18T10:14:43;27.40;;;13.45;;
1294;SDS011;640;48.310;11.728;2022-12-18T10:17:19;36.80;;;20.58;;
1294;SDS011;640;48.310;11.728;2022-12-18T10:19:52;16.10;;;10.02;;
1294;SDS011;640;48.310;11.728;2022-12-18T10:22:31;33.20;;;17.63;;
1294;SDS011;640;48.310;11.728;2022-12-18T10:25:13;39.15;;;19.67;;
1294;SDS011;640;48.310;11.728;2022-12-18T10:27:48;31.50;;;16.77;;
1294;SDS011;640;48.310;11.728;2022-12-18T10:30:20;37.00;;;18.35;;
1294;SDS011;640;48.310;11.728;2022-12-18T10:32:49;34.75;;;17.27;;
1294;SDS011;640;48.310;11.728;2022-12-18T10:35:19;39.03;;;18.95;;
1294;SDS011;640;48.310;11.728;2022-12-18T10:40:35;35.13;;;16.35;;
1294;SDS011;640;48.310;11.728;2022-12-18T10:43:21;32.92;;;18.08;;
1294;SDS011;640;48.310;11.728;2022-12-18T10:45:58;35.88;;;19.33;;
1294;SDS011;640;48.310;11.728;2022-12-18T10:48:49;35.50;;;17.50;;
1294;SDS011;640;48.310;11.728;2022-12-18T10:51:20;32.78;;;16.83;;
1294;SDS011;640;48.310;11.728;2022-12-18T10:53:56;36.17;;;19.48;;
1294;SDS011;640;48.310;11.728;2022-12-18T10:56:27;34.42;;;18.83;;
1294;SDS011;640;48.310;11.728;2022-12-18T10:58:58;33.88;;;16.42;;
1294;SDS011;640;48.310;11.728;2022-12-18T11:01:33;35.85;;;19.05;;
1294;SDS011;640;48.310;11.728;2022-12-18T11:04:16;34.38;;;18.20;;
1294;SDS011;640;48.310;11.728;2022-12-18T11:06:53;35.40;;;18.15;;
1294;SDS011;640;48.310;11.728;2022-12-18T11:09:23;34.88;;;19.30;;
1294;SDS011;640;48.310;11.728;2022-12-18T11:11:53;40.67;;;21.73;;
1294;SDS011;640;48.310;11.728;2022-12-18T11:14:23;37.38;;;18.52;;
1294;SDS011;640;48.310;11.728;2022-12-18T11:16:53;37.00;;;19.40;;
1294;SDS011;640;48.310;11.728;2022-12-18T11:19:42;37.85;;;19.15;;
1294;SDS011;640;48.310;11.728;2022-12-18T11:22:17;35.28;;;18.35;;
1294;SDS011;640;48.310;11.728;2022-12-18T11:24:52;39.97;;;19.40;;
1294;SDS011;640;48.310;11.728;2022-12-18T11:27:41;41.72;;;22.13;;
1294;SDS011;640;48.310;11.728;2022-12-18T11:30:22;26.60;;;14.25;;
1294;SDS011;640;48.310;11.728;2022-12-18T11:32:52;32.67;;;16.90;;
1294;SDS011;640;48.310;11.728;2022-12-18T11:35:23;29.15;;;15.68;;
1294;SDS011;640;48.310;11.728;2022-12-18T11:37:59;36.97;;;20.05;;
1294;SDS011;640;48.310;11.728;2022-12-18T11:40:33;35.17;;;18.58;;
1294;SDS011;640;48.310;11.728;2022-12-18T11:43:08;38.47;;;19.77;;
1294;SDS011;640;48.310;11.728;2022-12-18T11:45:40;32.63;;;17.55;;
1294;SDS011;640;48.310;11.728;2022-12-18T11:48:12;32.17;;;17.60;;
1294;SDS011;640;48.310;11.728;2022-12-18T11:50:46;44.58;;;22.65;;
1294;SDS011;640;48.310;11.728;2022-12-18T11:53:17;54.17;;;29.92;;
1294;SDS011;640;48.310;11.728;2022-12-18T11:55:49;49.80;;;25.42;;
1294;SDS011;640;48.310;11.728;2022-12-18T11:58:33;35.67;;;19.73;;
1294;SDS011;640;48.310;11.728;2022-12-18T12:01:12;34.65;;;20.67;;
1294;SDS011;640;48.310;11.728;2022-12-18T12:03:50;53.50;;;26.13;;
1294;SDS011;640;48.310;11.728;2022-12-18T12:06:35;49.30;;;27.25;;
1294;SDS011;640;48.310;11.728;2022-12-18T12:09:08;38.35;;;22.30;;
1294;SDS011;640;48.310;11.728;2022-12-18T12:11:43;32.70;;;19.92;;
1294;SDS011;640;48.310;11.728;2022-12-18T12:14:34;30.90;;;17.20;;
1294;SDS011;640;48.310;11.728;2022-12-18T12:17:13;38.75;;;19.98;;
1294;SDS011;640;48.310;11.728;2022-12-18T12:19:48;41.97;;;23.95;;
1294;SDS011;640;48.310;11.728;2022-12-18T12:22:22;36.85;;;19.70;;
1294;SDS011;640;48.310;11.728;2022-12-18T12:24:57;42.08;;;25.77;;
1294;SDS011;640;48.310;11.728;2022-12-18T12:27:34;36.88;;;18.88;;
1294;SDS011;640;48.310;11.728;2022-12-18T12:30:08;36.92;;;18.85;;
1294;SDS011;640;48.310;11.728;2022-12-18T12:32:45;34.72;;;20.80;;
1294;SDS011;640;48.310;11.728;2022-12-18T12:35:24;33.05;;;18.83;;
1294;SDS011;640;48.310;11.728;2022-12-18T12:38:02;34.35;;;19.23;;
1294;SDS011;640;48.310;11.728;2022-12-18T12:40:34;38.17;;;22.30;;
1294;SDS011;640;48.310;11.728;2022-12-18T12:43:27;46.20;;;27.27;;
1294;SDS011;640;48.310;11.728;2022-12-18T12:45:59;36.15;;;23.35;;
1294;SDS011;640;48.310;11.728;2022-12-18T12:48:33;37.58;;;23.45;;
1294;SDS011;640;48.310;11.728;2022-12-18T12:51:07;37.17;;;23.27;;
1294;SDS011;640;48.310;11.728;2022-12-18T12:53:39;25.60;;;16.17;;
1294;SDS011;640;48.310;11.728;2022-12-18T12:56:08;37.42;;;22.02;;
1294;SDS011;640;48.310;11.728;2022-12-18T12:58:41;39.28;;;21.35;;
1294;SDS011;640;48.310;11.728;2022-12-18T13:01:17;36.65;;;20.08;;
1294;SDS011;640;48.310;11.728;2022-12-18T13:03:56;35.72;;;20.83;;
1294;SDS011;640;48.310;11.728;2022-12-18T13:06:34;31.27;;;17.42;;
1294;SDS011;640;48.310;11.728;2022-12-18T13:09:10;35.70;;;20.58;;
1294;SDS011;640;48.310;11.728;2022-12-18T13:11:39;35.03;;;20.50;;
1294;SDS011;640;48.310;11.728;2022-12-18T13:14:27;30.40;;;18.20;;
1294;SDS011;640;48.310;11.728;2022-12-18T13:17:13;34.80;;;21.33;;
1294;SDS011;640;48.310;11.728;2022-12-18T13:19:47;34.30;;;17.10;;
1294;SDS011;640;48.310;11.728;2022-12-18T13:22:20;33.97;;;17.63;;
1294;SDS011;640;48.310;11.728;2022-12-18T13:24:49;34.35;;;18.98;;
1294;SDS011;640;48.310;11.728;2022-12-18T13:36:36;32.72;;;17.95;;
1294;SDS011;640;48.310;11.728;2022-12-18T13:48:28;34.67;;;18.38;;
1294;SDS011;640;48.310;11.728;2022-12-18T13:50:59;35.42;;;18.90;;
1294;SDS011;640;48.310;11.728;2022-12-18T13:53:33;33.35;;;18.25;;
1294;SDS011;640;48.310;11.728;2022-12-18T13:56:04;36.50;;;20.40;;
1294;SDS011;640;48.310;11.728;2022-12-18T13:58:34;32.72;;;18.27;;
1294;SDS011;640;48.310;11.728;2022-12-18T14:01:02;36.55;;;20.50;;
1294;SDS011;640;48.310;11.728;2022-12-18T14:03:31;32.30;;;19.38;;
1294;SDS011;640;48.310;11.728;2022-12-18T14:06:01;36.55;;;21.80;;
1294;SDS011;640;48.310;11.728;2022-12-18T14:08:37;37.13;;;21.35;;
1294;SDS011;640;48.310;11.728;2022-12-18T14:11:07;31.77;;;18.85;;
1294;SDS011;640;48.310;11.728;2022-12-18T14:13:47;36.08;;;19.58;;
1294;SDS011;640;48.310;11.728;2022-12-18T14:16:17;40.17;;;21.02;;
1294;SDS011;640;48.310;11.728;2022-12-18T14:18:46;39.70;;;22.13;;
1294;SDS011;640;48.310;11.728;2022-12-18T14:21:18;40.75;;;21.83;;
1294;SDS011;640;48.310;11.728;2022-12-18T14:23:49;36.70;;;19.23;;
1294;SDS011;640;48.310;11.728;2022-12-18T14:26:31;35.53;;;18.42;;
1294;SDS011;640;48.310;11.728;2022-12-18T14:29:01;35.80;;;19.80;;
1294;SDS011;640;48.310;11.728;2022-12-18T14:31:43;36.95;;;20.40;;
1294;SDS011;640;48.310;11.728;2022-12-18T14:34:14;40.10;;;22.20;;
1294;SDS011;640;48.310;11.728;2022-12-18T14:36:51;35.45;;;19.48;;
1294;SDS011;640;48.310;11.728;2022-12-18T14:39:21;40.00;;;21.70;;
1294;SDS011;640;48.310;11.728;2022-12-18T14:41:51;37.10;;;20.50;;
1294;SDS011;640;48.310;11.728;2022-12-18T14:44:20;34.33;;;19.27;;
1294;SDS011;640;48.310;11.728;2022-12-18T14:46:49;40.00;;;20.27;;
1294;SDS011;640;48.310;11.728;2022-12-18T14:49:20;39.00;;;20.67;;
1294;SDS011;640;48.310;11.728;2022-12-18T14:51:52;36.03;;;20.30;;
1294;SDS011;640;48.310;11.728;2022-12-18T14:54:23;37.00;;;18.83;;
1294;SDS011;640;48.310;11.728;2022-12-18T14:56:54;40.70;;;21.17;;
1294;SDS011;640;48.310;11.728;2022-12-18T14:59:26;35.40;;;19.80;;
1294;SDS011;640;48.310;11.728;2022-12-18T15:01:58;46.08;;;25.10;;
1294;SDS011;640;48.310;11.728;2022-12-18T15:04:32;36.75;;;21.48;;
1294;SDS011;640;48.310;11.728;2022-12-18T15:07:03;34.35;;;19.10;;
1294;SDS011;640;48.310;11.728;2022-12-18T15:09:42;39.97;;;21.75;;
1294;SDS011;640;48.310;11.728;2022-12-18T15:12:19;43.25;;;23.23;;
1294;SDS011;640;48.310;11.728;2022-12-18T15:14:53;41.88;;;22.05;;
1294;SDS011;640;48.310;11.728;2022-12-18T15:17:22;38.90;;;20.05;;
1294;SDS011;640;48.310;11.728;2022-12-18T15:19:53;41.05;;;21.40;;
1294;SDS011;640;48.310;11.728;2022-12-18T15:22:27;44.40;;;23.25;;
1294;SDS011;640;48.310;11.728;2022-12-18T15:24:58;39.97;;;20.25;;
1294;SDS011;640;48.310;11.728;2022-12-18T15:27:28;43.40;;;23.70;;
1294;SDS011;640;48.310;11.728;2022-12-18T15:30:18;41.38;;;21.05;;
1294;SDS011;640;48.310;11.728;2022-12-18T15:32:48;51.27;;;24.03;;
1294;SDS011;640;48.310;11.728;2022-12-18T15:35:18;50.57;;;23.53;;
1294;SDS011;640;48.310;11.728;2022-12-18T15:37:49;54.08;;;23.13;;
1294;SDS011;640;48.310;11.728;2022-12-18T15:40:19;36.58;;;18.58;;
1294;SDS011;640;48.310;11.728;2022-12-18T15:42:50;39.17;;;18.63;;